createdAt,value
2022-10-24T00:02:57.680Z,13.90
2022-10-24T00:07:59.249Z,13.94
2022-10-24T00:13:00.761Z,14.02
2022-10-24T00:18:02.285Z,14.07
2022-10-24T00:23:04.545Z,14.09
2022-10-24T00:28:06.117Z,14.10
2022-10-24T00:33:07.587Z,14.07
2022-10-24T00:38:15.229Z,14.06
2022-10-24T00:43:20.430Z,14.04
2022-10-24T00:48:42.193Z,14.06
2022-10-24T00:53:48.055Z,14.05
2022-10-24T00:58:50.119Z,14.06
2022-10-24T01:03:51.586Z,14.08
2022-10-24T01:09:13.875Z,14.11
2022-10-24T01:14:27.211Z,14.14
2022-10-24T01:19:57.983Z,14.14
2022-10-24T01:25:10.909Z,14.17
2022-10-24T01:30:14.075Z,14.20
2022-10-24T01:35:24.022Z,14.24
2022-10-24T01:40:38.005Z,14.26
2022-10-24T01:45:44.904Z,14.30
2022-10-24T01:50:49.593Z,14.32
2022-10-24T01:55:51.262Z,14.30
2022-10-24T02:00:58.195Z,14.24
2022-10-24T02:06:08.229Z,14.23
2022-10-24T02:11:10.341Z,14.21
2022-10-24T02:16:16.561Z,14.21
2022-10-24T02:21:31.817Z,14.23
2022-10-24T02:26:39.939Z,14.26
2022-10-24T02:31:48.376Z,14.30
2022-10-24T02:36:53.596Z,14.33
2022-10-24T02:41:57.341Z,14.35
2022-10-24T02:47:02.258Z,14.35
2022-10-24T02:52:04.285Z,14.35
2022-10-24T02:57:05.824Z,14.29
2022-10-24T03:02:07.994Z,14.25
2022-10-24T03:07:09.468Z,14.20
2022-10-24T03:12:15.113Z,14.18
2022-10-24T03:17:16.575Z,14.15
2022-10-24T03:22:18.048Z,14.19
2022-10-24T03:27:19.585Z,14.21
2022-10-24T03:32:21.371Z,14.22
2022-10-24T03:37:22.880Z,14.20
2022-10-24T03:42:24.353Z,14.15
2022-10-24T03:47:25.801Z,14.13
2022-10-24T03:52:27.461Z,14.10
2022-10-24T03:57:28.928Z,14.05
2022-10-24T04:02:30.402Z,14.09
2022-10-24T04:07:31.874Z,14.08
2022-10-24T04:12:33.527Z,14.06
2022-10-24T04:17:35.006Z,14.08
2022-10-24T04:22:36.476Z,14.14
2022-10-24T04:27:40.597Z,14.19
2022-10-24T04:32:42.473Z,14.22
2022-10-24T04:37:44.156Z,14.20
2022-10-24T04:42:46.257Z,14.23
2022-10-24T04:47:47.965Z,14.17
2022-10-24T04:52:49.572Z,14.13
2022-10-24T04:57:51.598Z,14.14
2022-10-24T05:02:55.450Z,14.13
2022-10-24T05:07:59.754Z,14.17
2022-10-24T05:13:01.238Z,14.08
2022-10-24T05:18:02.918Z,14.05
2022-10-24T05:23:04.412Z,14.02
2022-10-24T05:28:06.064Z,14.01
2022-10-24T05:33:07.562Z,14.03
2022-10-24T05:38:09.255Z,14.09
2022-10-24T05:43:10.789Z,14.13
2022-10-24T05:48:12.268Z,14.12
2022-10-24T05:53:13.789Z,14.25
2022-10-24T05:58:20.880Z,14.26
2022-10-24T06:03:22.654Z,14.31
2022-10-24T06:08:25.465Z,14.37
2022-10-24T06:13:27.098Z,14.39
2022-10-24T06:18:28.551Z,14.41
2022-10-24T06:23:30.759Z,14.41
2022-10-24T06:28:32.240Z,14.42
2022-10-24T06:33:34.693Z,14.45
2022-10-24T06:38:36.882Z,14.41
2022-10-24T06:43:39.410Z,14.47
2022-10-24T06:48:40.966Z,14.53
2022-10-24T06:53:42.661Z,14.55
2022-10-24T06:58:44.873Z,14.51
2022-10-24T07:03:47.559Z,14.55
2022-10-24T07:08:51.060Z,14.53
2022-10-24T07:13:55.287Z,14.57
2022-10-24T07:18:59.722Z,14.57
2022-10-24T07:24:01.426Z,14.49
2022-10-24T07:29:03.639Z,14.36
2022-10-24T07:34:07.837Z,14.29
2022-10-24T07:39:09.727Z,14.30
2022-10-24T07:44:11.319Z,14.35
2022-10-24T07:49:12.781Z,14.45
2022-10-24T07:54:14.264Z,14.54
2022-10-24T07:59:37.037Z,14.56
2022-10-24T08:04:37.215Z,14.65
2022-10-24T08:09:40.716Z,14.78
2022-10-24T08:14:42.260Z,14.89
2022-10-24T08:19:44.444Z,14.76
2022-10-24T08:24:46.630Z,14.68
2022-10-24T08:29:48.123Z,14.65
2022-10-24T08:34:49.626Z,14.59
2022-10-24T08:39:55.526Z,14.72
2022-10-24T08:44:56.977Z,14.78
2022-10-24T08:50:06.878Z,14.90
2022-10-24T08:55:43.914Z,15.10
2022-10-24T09:00:46.775Z,15.09
2022-10-24T09:05:55.846Z,15.10
2022-10-24T09:11:02.842Z,15.11
2022-10-24T09:16:04.706Z,15.15
2022-10-24T09:21:08.554Z,15.07
2022-10-24T09:26:24.337Z,15.10
2022-10-24T09:31:27.402Z,15.10
2022-10-24T09:36:29.971Z,15.10
2022-10-24T09:41:33.287Z,15.06
2022-10-24T09:46:45.864Z,15.05
2022-10-24T09:51:58.456Z,15.00
2022-10-24T09:57:12.738Z,15.13
2022-10-24T10:02:19.783Z,15.40
2022-10-24T10:07:27.066Z,15.85
2022-10-24T10:12:40.868Z,15.94
2022-10-24T10:17:53.735Z,15.85
2022-10-24T10:22:55.575Z,15.69
2022-10-24T10:28:01.037Z,15.53
2022-10-24T10:33:07.549Z,15.45
2022-10-24T10:38:42.945Z,15.48
2022-10-24T10:43:59.503Z,15.49
2022-10-24T10:49:24.458Z,15.51
2022-10-24T10:54:47.310Z,15.65
2022-10-24T11:00:00.831Z,15.94
2022-10-24T11:05:11.843Z,16.11
2022-10-24T11:10:21.300Z,16.18
2022-10-24T11:15:37.002Z,16.28
2022-10-24T11:20:44.479Z,16.23
2022-10-24T11:25:52.321Z,15.86
2022-10-24T11:31:01.332Z,15.28
2022-10-24T11:36:08.966Z,15.05
2022-10-24T11:41:34.254Z,14.68
2022-10-24T11:46:44.643Z,14.21
2022-10-24T11:51:55.739Z,14.24
2022-10-24T11:57:02.542Z,14.36
2022-10-24T12:02:19.728Z,14.46
2022-10-24T12:07:58.520Z,14.49
2022-10-24T12:13:14.167Z,14.25
2022-10-24T12:18:30.756Z,14.04
2022-10-24T12:23:32.669Z,13.93
2022-10-24T12:28:35.717Z,14.21
2022-10-24T12:33:37.358Z,14.22
2022-10-24T12:38:39.087Z,13.89
2022-10-24T12:43:43.363Z,13.72
2022-10-24T12:49:15.568Z,13.66
2022-10-24T12:54:18.292Z,13.75
2022-10-24T12:59:28.088Z,13.93
2022-10-24T13:04:35.621Z,14.14
2022-10-24T13:09:49.240Z,14.18
2022-10-24T13:15:32.962Z,14.25
2022-10-24T13:20:43.795Z,14.24
2022-10-24T13:25:45.825Z,14.06
2022-10-24T13:30:49.749Z,14.17
2022-10-24T13:35:53.128Z,14.45
2022-10-24T13:40:55.289Z,14.51
2022-10-24T13:46:04.214Z,14.34
2022-10-24T13:51:16.134Z,14.37
2022-10-24T13:56:18.276Z,14.39
2022-10-24T14:01:27.307Z,14.22
2022-10-24T14:06:33.894Z,14.22
2022-10-24T14:11:40.825Z,14.34
2022-10-24T14:16:42.380Z,14.39
2022-10-24T14:21:48.589Z,14.29
2022-10-24T14:26:53.214Z,14.35
2022-10-24T14:32:07.886Z,14.21
2022-10-24T14:37:16.681Z,14.35
2022-10-24T14:42:18.686Z,14.43
2022-10-24T14:47:22.038Z,14.49
2022-10-24T14:52:42.532Z,14.23
2022-10-24T14:57:50.663Z,14.20
2022-10-24T15:02:55.864Z,14.10
2022-10-24T15:08:27.553Z,14.18
2022-10-24T15:13:32.682Z,14.02
2022-10-24T15:18:43.921Z,13.97
2022-10-24T15:23:54.825Z,14.00
2022-10-24T15:29:17.068Z,14.02
2022-10-24T15:34:21.702Z,14.09
2022-10-24T15:39:24.910Z,13.89
2022-10-24T15:44:29.371Z,13.99
2022-10-24T15:49:31.647Z,13.98
2022-10-24T15:54:33.401Z,13.84
2022-10-24T15:59:34.933Z,13.76
2022-10-24T16:04:40.216Z,13.78
2022-10-24T16:09:41.721Z,13.84
2022-10-24T16:14:43.200Z,13.80
2022-10-24T16:19:44.717Z,13.83
2022-10-24T16:24:46.227Z,13.85
2022-10-24T16:29:47.695Z,13.72
2022-10-24T16:34:50.257Z,13.67
2022-10-24T16:39:51.848Z,13.63
2022-10-24T16:44:53.445Z,13.65
2022-10-24T16:49:59.504Z,13.58
2022-10-24T16:55:00.961Z,13.57
2022-10-24T17:00:02.649Z,13.56
2022-10-24T17:05:04.235Z,13.56
2022-10-24T17:10:06.117Z,13.46
2022-10-24T17:15:08.930Z,13.42
2022-10-24T17:20:12.132Z,13.43
2022-10-24T17:25:26.679Z,13.41
2022-10-24T17:30:29.748Z,13.43
2022-10-24T17:35:32.264Z,13.44
2022-10-24T17:40:44.136Z,13.37
2022-10-24T17:45:45.891Z,13.35
2022-10-24T17:50:47.594Z,13.32
2022-10-24T17:55:49.147Z,13.30
2022-10-24T18:00:50.657Z,13.30
2022-10-24T18:05:52.189Z,13.27
2022-10-24T18:10:54.056Z,13.32
2022-10-24T18:15:56.215Z,13.34
2022-10-24T18:21:10.457Z,13.34
2022-10-24T18:26:20.431Z,13.34
2022-10-24T18:31:27.776Z,13.34
2022-10-24T18:36:31.661Z,13.31
2022-10-24T18:41:44.753Z,13.31
2022-10-24T18:46:46.487Z,13.30
2022-10-24T18:51:52.142Z,13.29
2022-10-24T18:56:53.667Z,13.26
2022-10-24T19:02:20.030Z,13.26
2022-10-24T19:07:21.653Z,13.21
2022-10-24T19:12:23.208Z,13.18
2022-10-24T19:17:24.749Z,13.15
2022-10-24T19:22:29.764Z,13.11
2022-10-24T19:27:31.254Z,13.09
2022-10-24T19:32:32.958Z,13.06
2022-10-24T19:37:34.499Z,13.00
2022-10-24T19:42:36.043Z,12.94
2022-10-24T19:47:37.565Z,12.95
2022-10-24T19:52:39.954Z,12.93
2022-10-24T19:57:41.428Z,12.86
2022-10-24T20:02:43.127Z,12.83
2022-10-24T20:07:44.643Z,12.82
2022-10-24T20:12:46.291Z,12.80
2022-10-24T20:17:47.980Z,12.78
2022-10-24T20:22:49.514Z,12.77
2022-10-24T20:27:50.986Z,12.72
2022-10-24T20:32:52.838Z,12.70
2022-10-24T20:37:54.297Z,12.68
2022-10-24T20:42:55.822Z,12.66
2022-10-24T20:47:57.283Z,12.64
2022-10-24T20:52:58.748Z,12.68
2022-10-24T20:58:00.198Z,12.66
2022-10-24T21:03:01.736Z,12.59
2022-10-24T21:08:03.512Z,12.58
2022-10-24T21:13:05.453Z,12.56
2022-10-24T21:18:06.936Z,12.55
2022-10-24T21:23:08.399Z,12.49
2022-10-24T21:28:09.881Z,12.54
2022-10-24T21:33:11.445Z,12.49
2022-10-24T21:38:12.925Z,12.46
2022-10-24T21:43:14.431Z,12.43
2022-10-24T21:48:16.160Z,12.42
2022-10-24T21:53:18.891Z,12.41
2022-10-24T21:58:20.352Z,12.42
2022-10-24T22:03:21.824Z,12.44
2022-10-24T22:08:24.126Z,12.42
2022-10-24T22:13:25.782Z,12.42
2022-10-24T22:18:29.658Z,12.42
2022-10-24T22:23:31.170Z,12.43
2022-10-24T22:28:32.651Z,12.42
2022-10-24T22:33:39.235Z,12.39
2022-10-24T22:38:41.030Z,12.38
2022-10-24T22:43:42.699Z,12.40
2022-10-24T22:48:48.781Z,12.42
2022-10-24T22:53:50.568Z,12.43
2022-10-24T22:58:52.205Z,12.47
2022-10-24T23:04:05.870Z,12.49
2022-10-24T23:09:10.124Z,12.48
2022-10-24T23:14:11.896Z,12.47
2022-10-24T23:19:20.914Z,12.59
2022-10-24T23:24:23.222Z,12.63
2022-10-24T23:29:31.744Z,12.66
2022-10-24T23:34:33.640Z,12.74
2022-10-24T23:39:35.864Z,12.75
2022-10-24T23:44:37.649Z,12.75
2022-10-24T23:49:47.261Z,12.78
2022-10-24T23:54:49.009Z,12.74
2022-10-24T23:59:50.454Z,12.72
